Accueil
METAR-TAF:

METAR-TAF

Aéroports :

Aéroport international de Wattay

Vientiane, Laos

latitude: 17-57N, longitude: 102-34E, altitude: 171 m

Observation

Le bulletin a été fait il y a 2 heures et 54 minutes, à 16:30 UTC
Vent 2 kt de est
Température 26°C
Humidité 89%
Pression 1013 hPa
Visibilité: 4000 m
Nuages épars à une hauteur de 5000 ft
brume

METAR: VLVT 191630Z 09002KT 4000 BR SCT050 26/24 Q1013 NOSIG

Heure: 02:24 (19:24 UTC)

Prévision

Le bulletin a été fait il y a 2 heures et 24 minutes, à 17:00 UTC
Prévision valable du 19 à 18 UTC au 20 à 18 UTC
Vent 6 kt de est/nord-est
Visibilité 10 km ou plus
Nuages épars à une hauteur de 2000 ft
Quelques nuages à une hauteur de 20000 ft
Temporairement
du 19 à 18 UTC au 19 à 22 UTC
Visibilité: 4000 m
Nuages épars à une hauteur de 5000 ft
Quelques nuages à une hauteur de 20000 ft
brume

TAF: VLVT 191700Z 1918/2018 06006KT 9999 SCT020 FEW200 TEMPO 1918/1922 4000 BR SCT050 FEW200

Observations et prévisions météorologiques de plus de 4000 aéroports (messages METAR et TAF).

Les stations disponibles sont représentées par des disques jaunes et rouges sur la carte.

Passer la souris dessus pour voir le nom de la station.

Cliquer dessus pour voir les observations et prévisions météorologiques.

Pour changer de carte: cliquez sur les boutons verts avec une croix noire pour zoomer, sur le bouton vert avec un tiret pour effectuer un zoom arrière, ou sur les flèches vertes pour les cartes adjacentes.


METAR-TAF: